sensor_id;sensor_type;location;lat;lon;timestamp;P1;durP1;ratioP1;P2;durP2;ratioP2
6531;SDS011;3299;42.004;24.868;2023-04-28T00:00:00;4.30;;;2.42;;
6531;SDS011;3299;42.004;24.868;2023-04-28T00:02:28;2.58;;;2.17;;
6531;SDS011;3299;42.004;24.868;2023-04-28T00:04:54;2.40;;;2.20;;
6531;SDS011;3299;42.004;24.868;2023-04-28T00:07:19;4.72;;;2.47;;
6531;SDS011;3299;42.004;24.868;2023-04-28T00:09:45;4.18;;;2.35;;
6531;SDS011;3299;42.004;24.868;2023-04-28T00:12:10;4.22;;;3.03;;
6531;SDS011;3299;42.004;24.868;2023-04-28T00:14:36;3.92;;;2.22;;
6531;SDS011;3299;42.004;24.868;2023-04-28T00:17:01;2.83;;;2.40;;
6531;SDS011;3299;42.004;24.868;2023-04-28T00:19:27;2.40;;;2.17;;
6531;SDS011;3299;42.004;24.868;2023-04-28T00:21:53;3.97;;;2.30;;
6531;SDS011;3299;42.004;24.868;2023-04-28T00:24:18;3.05;;;2.25;;
6531;SDS011;3299;42.004;24.868;2023-04-28T00:26:44;2.17;;;2.00;;
6531;SDS011;3299;42.004;24.868;2023-04-28T00:29:09;2.65;;;2.45;;
6531;SDS011;3299;42.004;24.868;2023-04-28T00:31:35;2.28;;;2.17;;
6531;SDS011;3299;42.004;24.868;2023-04-28T00:34:00;2.83;;;2.60;;
6531;SDS011;3299;42.004;24.868;2023-04-28T00:36:26;2.38;;;2.15;;
6531;SDS011;3299;42.004;24.868;2023-04-28T00:38:55;3.53;;;2.15;;
6531;SDS011;3299;42.004;24.868;2023-04-28T00:41:21;2.33;;;2.10;;
6531;SDS011;3299;42.004;24.868;2023-04-28T00:43:47;5.43;;;2.38;;
6531;SDS011;3299;42.004;24.868;2023-04-28T00:46:20;2.17;;;1.95;;
6531;SDS011;3299;42.004;24.868;2023-04-28T00:48:52;2.08;;;1.98;;
6531;SDS011;3299;42.004;24.868;2023-04-28T00:51:18;2.92;;;2.15;;
6531;SDS011;3299;42.004;24.868;2023-04-28T00:53:43;4.50;;;2.50;;
6531;SDS011;3299;42.004;24.868;2023-04-28T00:56:09;2.42;;;2.22;;
6531;SDS011;3299;42.004;24.868;2023-04-28T00:58:36;4.07;;;2.30;;
6531;SDS011;3299;42.004;24.868;2023-04-28T01:01:04;2.83;;;2.20;;
6531;SDS011;3299;42.004;24.868;2023-04-28T01:03:41;3.80;;;2.60;;
6531;SDS011;3299;42.004;24.868;2023-04-28T01:06:07;3.00;;;2.35;;
6531;SDS011;3299;42.004;24.868;2023-04-28T01:08:34;2.88;;;2.28;;
6531;SDS011;3299;42.004;24.868;2023-04-28T01:11:00;3.35;;;2.17;;
6531;SDS011;3299;42.004;24.868;2023-04-28T01:13:26;2.75;;;2.55;;
6531;SDS011;3299;42.004;24.868;2023-04-28T01:15:52;4.03;;;2.30;;
6531;SDS011;3299;42.004;24.868;2023-04-28T01:18:19;3.03;;;2.72;;
6531;SDS011;3299;42.004;24.868;2023-04-28T01:20:44;4.65;;;2.33;;
6531;SDS011;3299;42.004;24.868;2023-04-28T01:23:16;2.38;;;2.20;;
6531;SDS011;3299;42.004;24.868;2023-04-28T01:25:42;3.85;;;2.60;;
6531;SDS011;3299;42.004;24.868;2023-04-28T01:28:08;3.42;;;2.75;;
6531;SDS011;3299;42.004;24.868;2023-04-28T01:30:35;3.53;;;2.67;;
6531;SDS011;3299;42.004;24.868;2023-04-28T01:33:01;2.63;;;2.42;;
6531;SDS011;3299;42.004;24.868;2023-04-28T01:35:27;3.90;;;2.30;;
6531;SDS011;3299;42.004;24.868;2023-04-28T01:37:52;3.15;;;2.47;;
6531;SDS011;3299;42.004;24.868;2023-04-28T01:40:18;2.35;;;2.15;;
6531;SDS011;3299;42.004;24.868;2023-04-28T01:42:43;3.05;;;2.72;;
6531;SDS011;3299;42.004;24.868;2023-04-28T01:45:09;3.75;;;2.42;;
6531;SDS011;3299;42.004;24.868;2023-04-28T01:47:35;2.70;;;2.50;;
6531;SDS011;3299;42.004;24.868;2023-04-28T01:50:00;3.92;;;2.28;;
6531;SDS011;3299;42.004;24.868;2023-04-28T01:52:26;2.90;;;2.70;;
6531;SDS011;3299;42.004;24.868;2023-04-28T01:54:52;2.72;;;2.40;;
6531;SDS011;3299;42.004;24.868;2023-04-28T01:57:17;2.60;;;2.40;;
6531;SDS011;3299;42.004;24.868;2023-04-28T01:59:43;3.60;;;3.00;;
6531;SDS011;3299;42.004;24.868;2023-04-28T02:02:08;2.45;;;2.25;;
6531;SDS011;3299;42.004;24.868;2023-04-28T02:04:34;2.55;;;2.40;;
6531;SDS011;3299;42.004;24.868;2023-04-28T02:06:59;2.88;;;2.25;;
6531;SDS011;3299;42.004;24.868;2023-04-28T02:09:25;2.70;;;2.50;;
6531;SDS011;3299;42.004;24.868;2023-04-28T02:11:50;3.63;;;2.70;;
6531;SDS011;3299;42.004;24.868;2023-04-28T02:14:15;3.22;;;2.22;;
6531;SDS011;3299;42.004;24.868;2023-04-28T02:16:41;2.70;;;2.50;;
6531;SDS011;3299;42.004;24.868;2023-04-28T02:19:06;3.22;;;2.30;;
6531;SDS011;3299;42.004;24.868;2023-04-28T02:21:32;2.97;;;2.28;;
6531;SDS011;3299;42.004;24.868;2023-04-28T02:23:57;2.70;;;2.50;;
6531;SDS011;3299;42.004;24.868;2023-04-28T02:26:23;2.30;;;2.20;;
6531;SDS011;3299;42.004;24.868;2023-04-28T02:28:48;3.75;;;2.60;;
6531;SDS011;3299;42.004;24.868;2023-04-28T02:31:14;3.05;;;2.85;;
6531;SDS011;3299;42.004;24.868;2023-04-28T02:33:39;2.47;;;2.30;;
6531;SDS011;3299;42.004;24.868;2023-04-28T02:36:06;2.28;;;2.08;;
6531;SDS011;3299;42.004;24.868;2023-04-28T02:38:33;2.58;;;2.38;;
6531;SDS011;3299;42.004;24.868;2023-04-28T02:43:25;2.63;;;2.30;;
6531;SDS011;3299;42.004;24.868;2023-04-28T02:45:51;2.50;;;2.30;;
6531;SDS011;3299;42.004;24.868;2023-04-28T02:48:17;2.25;;;2.10;;
6531;SDS011;3299;42.004;24.868;2023-04-28T02:50:43;3.17;;;2.70;;
6531;SDS011;3299;42.004;24.868;2023-04-28T02:53:10;2.67;;;2.35;;
6531;SDS011;3299;42.004;24.868;2023-04-28T02:55:36;2.85;;;2.30;;
6531;SDS011;3299;42.004;24.868;2023-04-28T02:58:01;2.47;;;2.28;;
6531;SDS011;3299;42.004;24.868;2023-04-28T03:00:26;2.50;;;2.30;;
6531;SDS011;3299;42.004;24.868;2023-04-28T03:02:52;2.83;;;2.30;;
6531;SDS011;3299;42.004;24.868;2023-04-28T03:05:18;3.90;;;2.20;;
6531;SDS011;3299;42.004;24.868;2023-04-28T03:07:44;2.72;;;2.50;;
6531;SDS011;3299;42.004;24.868;2023-04-28T03:10:09;3.65;;;2.60;;
6531;SDS011;3299;42.004;24.868;2023-04-28T03:12:34;3.97;;;2.00;;
6531;SDS011;3299;42.004;24.868;2023-04-28T03:15:00;2.28;;;2.08;;
6531;SDS011;3299;42.004;24.868;2023-04-28T03:17:26;3.35;;;2.40;;
6531;SDS011;3299;42.004;24.868;2023-04-28T03:19:51;2.80;;;2.60;;
6531;SDS011;3299;42.004;24.868;2023-04-28T03:22:16;3.67;;;2.30;;
6531;SDS011;3299;42.004;24.868;2023-04-28T03:24:42;2.53;;;2.33;;
6531;SDS011;3299;42.004;24.868;2023-04-28T03:27:07;5.13;;;3.13;;
6531;SDS011;3299;42.004;24.868;2023-04-28T03:29:33;4.13;;;2.65;;
6531;SDS011;3299;42.004;24.868;2023-04-28T03:31:58;3.28;;;2.70;;
6531;SDS011;3299;42.004;24.868;2023-04-28T03:34:24;2.72;;;2.53;;
6531;SDS011;3299;42.004;24.868;2023-04-28T03:36:49;4.45;;;2.38;;
6531;SDS011;3299;42.004;24.868;2023-04-28T03:39:14;3.38;;;2.25;;
6531;SDS011;3299;42.004;24.868;2023-04-28T03:41:40;4.47;;;2.40;;
6531;SDS011;3299;42.004;24.868;2023-04-28T03:44:05;3.00;;;2.30;;
6531;SDS011;3299;42.004;24.868;2023-04-28T03:46:31;3.67;;;2.45;;
6531;SDS011;3299;42.004;24.868;2023-04-28T03:48:58;3.75;;;2.95;;
6531;SDS011;3299;42.004;24.868;2023-04-28T03:51:25;2.63;;;2.42;;
6531;SDS011;3299;42.004;24.868;2023-04-28T03:53:51;2.60;;;2.40;;
6531;SDS011;3299;42.004;24.868;2023-04-28T03:56:17;3.22;;;2.92;;
6531;SDS011;3299;42.004;24.868;2023-04-28T03:58:42;5.93;;;3.05;;
6531;SDS011;3299;42.004;24.868;2023-04-28T04:01:08;3.22;;;2.80;;
6531;SDS011;3299;42.004;24.868;2023-04-28T04:03:33;8.25;;;2.97;;
6531;SDS011;3299;42.004;24.868;2023-04-28T04:05:59;8.48;;;3.28;;
6531;SDS011;3299;42.004;24.868;2023-04-28T04:08:24;4.38;;;3.30;;
6531;SDS011;3299;42.004;24.868;2023-04-28T04:10:50;4.13;;;3.30;;
6531;SDS011;3299;42.004;24.868;2023-04-28T04:13:16;3.70;;;3.40;;
6531;SDS011;3299;42.004;24.868;2023-04-28T04:15:41;4.68;;;3.00;;
6531;SDS011;3299;42.004;24.868;2023-04-28T04:18:07;3.13;;;2.90;;
6531;SDS011;3299;42.004;24.868;2023-04-28T04:20:32;3.45;;;3.03;;
6531;SDS011;3299;42.004;24.868;2023-04-28T04:22:58;3.33;;;3.03;;
6531;SDS011;3299;42.004;24.868;2023-04-28T04:25:23;3.15;;;2.85;;
6531;SDS011;3299;42.004;24.868;2023-04-28T04:27:49;5.47;;;2.83;;
6531;SDS011;3299;42.004;24.868;2023-04-28T04:30:14;3.45;;;3.00;;
6531;SDS011;3299;42.004;24.868;2023-04-28T04:32:40;2.90;;;2.65;;
6531;SDS011;3299;42.004;24.868;2023-04-28T04:35:05;3.33;;;3.05;;
6531;SDS011;3299;42.004;24.868;2023-04-28T04:37:31;2.83;;;2.63;;
6531;SDS011;3299;42.004;24.868;2023-04-28T04:39:57;3.22;;;3.03;;
6531;SDS011;3299;42.004;24.868;2023-04-28T04:42:22;5.55;;;4.63;;
6531;SDS011;3299;42.004;24.868;2023-04-28T04:44:48;3.42;;;2.53;;
6531;SDS011;3299;42.004;24.868;2023-04-28T04:47:13;3.28;;;3.00;;
6531;SDS011;3299;42.004;24.868;2023-04-28T04:49:39;3.08;;;2.80;;
6531;SDS011;3299;42.004;24.868;2023-04-28T04:52:04;3.65;;;2.85;;
6531;SDS011;3299;42.004;24.868;2023-04-28T04:54:31;5.40;;;2.90;;
6531;SDS011;3299;42.004;24.868;2023-04-28T04:56:56;3.30;;;3.00;;
6531;SDS011;3299;42.004;24.868;2023-04-28T04:59:21;3.30;;;2.92;;
6531;SDS011;3299;42.004;24.868;2023-04-28T05:01:47;3.40;;;2.63;;
6531;SDS011;3299;42.004;24.868;2023-04-28T05:04:12;2.72;;;2.28;;
6531;SDS011;3299;42.004;24.868;2023-04-28T05:06:38;2.40;;;1.83;;
6531;SDS011;3299;42.004;24.868;2023-04-28T05:09:04;5.07;;;2.05;;
6531;SDS011;3299;42.004;24.868;2023-04-28T05:11:30;2.17;;;1.90;;
6531;SDS011;3299;42.004;24.868;2023-04-28T05:13:55;2.42;;;2.17;;
6531;SDS011;3299;42.004;24.868;2023-04-28T05:16:20;3.35;;;2.45;;
6531;SDS011;3299;42.004;24.868;2023-04-28T05:18:46;2.67;;;1.90;;
6531;SDS011;3299;42.004;24.868;2023-04-28T05:21:12;3.33;;;2.10;;
6531;SDS011;3299;42.004;24.868;2023-04-28T05:23:37;4.40;;;2.00;;
6531;SDS011;3299;42.004;24.868;2023-04-28T05:26:03;2.25;;;1.83;;
6531;SDS011;3299;42.004;24.868;2023-04-28T05:28:29;2.60;;;2.40;;
6531;SDS011;3299;42.004;24.868;2023-04-28T05:30:55;5.03;;;2.10;;
6531;SDS011;3299;42.004;24.868;2023-04-28T05:33:20;2.28;;;1.70;;
6531;SDS011;3299;42.004;24.868;2023-04-28T05:35:47;2.80;;;1.63;;
6531;SDS011;3299;42.004;24.868;2023-04-28T05:38:13;3.67;;;1.67;;
6531;SDS011;3299;42.004;24.868;2023-04-28T05:40:38;1.92;;;1.70;;
6531;SDS011;3299;42.004;24.868;2023-04-28T05:43:03;2.92;;;1.83;;
6531;SDS011;3299;42.004;24.868;2023-04-28T05:45:29;2.83;;;1.90;;
6531;SDS011;3299;42.004;24.868;2023-04-28T05:47:54;4.78;;;1.90;;
6531;SDS011;3299;42.004;24.868;2023-04-28T05:50:20;4.07;;;1.75;;
6531;SDS011;3299;42.004;24.868;2023-04-28T05:52:45;3.05;;;1.83;;
6531;SDS011;3299;42.004;24.868;2023-04-28T05:55:11;2.50;;;1.75;;
6531;SDS011;3299;42.004;24.868;2023-04-28T05:57:36;3.47;;;1.70;;
6531;SDS011;3299;42.004;24.868;2023-04-28T06:00:02;1.85;;;1.63;;
6531;SDS011;3299;42.004;24.868;2023-04-28T06:02:27;2.33;;;1.48;;
6531;SDS011;3299;42.004;24.868;2023-04-28T06:04:53;1.63;;;1.50;;
6531;SDS011;3299;42.004;24.868;2023-04-28T06:07:18;2.85;;;1.88;;
6531;SDS011;3299;42.004;24.868;2023-04-28T06:09:44;2.78;;;2.03;;
6531;SDS011;3299;42.004;24.868;2023-04-28T06:12:09;3.72;;;2.17;;
6531;SDS011;3299;42.004;24.868;2023-04-28T06:14:34;1.90;;;1.65;;
6531;SDS011;3299;42.004;24.868;2023-04-28T06:17:02;2.45;;;1.60;;
6531;SDS011;3299;42.004;24.868;2023-04-28T06:19:27;4.32;;;1.90;;
6531;SDS011;3299;42.004;24.868;2023-04-28T06:21:53;4.22;;;2.13;;
6531;SDS011;3299;42.004;24.868;2023-04-28T06:24:18;2.47;;;1.42;;
6531;SDS011;3299;42.004;24.868;2023-04-28T06:26:43;14.93;;;2.45;;
6531;SDS011;3299;42.004;24.868;2023-04-28T06:29:09;2.17;;;1.60;;
6531;SDS011;3299;42.004;24.868;2023-04-28T06:31:35;2.00;;;1.63;;
6531;SDS011;3299;42.004;24.868;2023-04-28T06:34:00;2.40;;;2.20;;
6531;SDS011;3299;42.004;24.868;2023-04-28T06:36:26;3.63;;;1.88;;
6531;SDS011;3299;42.004;24.868;2023-04-28T06:38:52;4.65;;;1.85;;
6531;SDS011;3299;42.004;24.868;2023-04-28T06:41:17;3.80;;;2.22;;
6531;SDS011;3299;42.004;24.868;2023-04-28T06:43:43;6.47;;;1.88;;
6531;SDS011;3299;42.004;24.868;2023-04-28T06:46:08;4.22;;;1.88;;
6531;SDS011;3299;42.004;24.868;2023-04-28T06:48:35;2.05;;;1.70;;
6531;SDS011;3299;42.004;24.868;2023-04-28T06:51:00;1.95;;;1.77;;
6531;SDS011;3299;42.004;24.868;2023-04-28T06:53:26;2.42;;;1.90;;
6531;SDS011;3299;42.004;24.868;2023-04-28T06:55:52;1.67;;;1.58;;
6531;SDS011;3299;42.004;24.868;2023-04-28T06:58:17;3.45;;;2.13;;
6531;SDS011;3299;42.004;24.868;2023-04-28T07:00:43;2.75;;;1.63;;
6531;SDS011;3299;42.004;24.868;2023-04-28T07:03:08;2.38;;;1.70;;
6531;SDS011;3299;42.004;24.868;2023-04-28T07:05:34;2.25;;;1.80;;
6531;SDS011;3299;42.004;24.868;2023-04-28T07:08:00;3.67;;;2.28;;
6531;SDS011;3299;42.004;24.868;2023-04-28T07:10:25;2.28;;;2.08;;
6531;SDS011;3299;42.004;24.868;2023-04-28T07:12:51;1.90;;;1.80;;
6531;SDS011;3299;42.004;24.868;2023-04-28T07:15:16;2.08;;;1.77;;
6531;SDS011;3299;42.004;24.868;2023-04-28T07:17:42;3.72;;;1.75;;
6531;SDS011;3299;42.004;24.868;2023-04-28T07:20:07;6.32;;;1.80;;
6531;SDS011;3299;42.004;24.868;2023-04-28T07:22:33;2.33;;;1.98;;
6531;SDS011;3299;42.004;24.868;2023-04-28T07:24:58;2.65;;;1.67;;
6531;SDS011;3299;42.004;24.868;2023-04-28T07:27:24;5.05;;;2.13;;
6531;SDS011;3299;42.004;24.868;2023-04-28T07:29:49;8.35;;;1.77;;
6531;SDS011;3299;42.004;24.868;2023-04-28T07:32:15;1.80;;;1.48;;
6531;SDS011;3299;42.004;24.868;2023-04-28T07:34:40;3.42;;;1.98;;
6531;SDS011;3299;42.004;24.868;2023-04-28T07:37:06;2.33;;;1.50;;
6531;SDS011;3299;42.004;24.868;2023-04-28T07:39:32;2.15;;;1.92;;
6531;SDS011;3299;42.004;24.868;2023-04-28T07:41:58;4.38;;;1.95;;
6531;SDS011;3299;42.004;24.868;2023-04-28T07:44:26;2.72;;;2.10;;
6531;SDS011;3299;42.004;24.868;2023-04-28T07:46:52;6.63;;;2.30;;
6531;SDS011;3299;42.004;24.868;2023-04-28T07:49:18;4.85;;;2.03;;
6531;SDS011;3299;42.004;24.868;2023-04-28T07:51:43;2.40;;;2.03;;
6531;SDS011;3299;42.004;24.868;2023-04-28T07:54:08;2.60;;;1.75;;
6531;SDS011;3299;42.004;24.868;2023-04-28T07:56:34;3.05;;;2.00;;
6531;SDS011;3299;42.004;24.868;2023-04-28T07:59:00;3.97;;;1.92;;
6531;SDS011;3299;42.004;24.868;2023-04-28T08:01:25;1.83;;;1.40;;
6531;SDS011;3299;42.004;24.868;2023-04-28T08:03:51;3.10;;;1.63;;
6531;SDS011;3299;42.004;24.868;2023-04-28T08:06:16;6.03;;;1.90;;
6531;SDS011;3299;42.004;24.868;2023-04-28T08:08:43;2.38;;;1.77;;
6531;SDS011;3299;42.004;24.868;2023-04-28T08:11:08;5.70;;;1.95;;
6531;SDS011;3299;42.004;24.868;2023-04-28T08:13:33;3.42;;;2.28;;
6531;SDS011;3299;42.004;24.868;2023-04-28T08:15:59;3.58;;;2.08;;
6531;SDS011;3299;42.004;24.868;2023-04-28T08:18:25;2.17;;;1.70;;
6531;SDS011;3299;42.004;24.868;2023-04-28T08:20:51;2.20;;;1.98;;
6531;SDS011;3299;42.004;24.868;2023-04-28T08:23:19;3.13;;;1.75;;
6531;SDS011;3299;42.004;24.868;2023-04-28T08:25:45;4.57;;;1.80;;
6531;SDS011;3299;42.004;24.868;2023-04-28T08:28:14;3.15;;;2.40;;
6531;SDS011;3299;42.004;24.868;2023-04-28T08:30:39;4.53;;;1.98;;
6531;SDS011;3299;42.004;24.868;2023-04-28T08:33:05;4.53;;;2.35;;
6531;SDS011;3299;42.004;24.868;2023-04-28T08:35:30;6.00;;;1.92;;
6531;SDS011;3299;42.004;24.868;2023-04-28T08:37:56;2.75;;;2.00;;
6531;SDS011;3299;42.004;24.868;2023-04-28T08:40:21;5.63;;;2.33;;
6531;SDS011;3299;42.004;24.868;2023-04-28T08:42:48;4.65;;;2.80;;
6531;SDS011;3299;42.004;24.868;2023-04-28T08:45:14;2.90;;;2.20;;
6531;SDS011;3299;42.004;24.868;2023-04-28T08:47:40;6.93;;;2.20;;
6531;SDS011;3299;42.004;24.868;2023-04-28T08:50:09;4.05;;;2.15;;
6531;SDS011;3299;42.004;24.868;2023-04-28T08:52:39;3.60;;;2.03;;
6531;SDS011;3299;42.004;24.868;2023-04-28T08:55:09;2.30;;;2.08;;
6531;SDS011;3299;42.004;24.868;2023-04-28T08:57:38;3.38;;;2.28;;
6531;SDS011;3299;42.004;24.868;2023-04-28T09:00:07;3.25;;;1.83;;
6531;SDS011;3299;42.004;24.868;2023-04-28T09:02:33;2.45;;;2.10;;
6531;SDS011;3299;42.004;24.868;2023-04-28T09:04:58;3.55;;;2.63;;
6531;SDS011;3299;42.004;24.868;2023-04-28T09:07:23;2.60;;;2.22;;
6531;SDS011;3299;42.004;24.868;2023-04-28T09:09:49;4.45;;;1.95;;
6531;SDS011;3299;42.004;24.868;2023-04-28T09:12:14;3.47;;;2.22;;
6531;SDS011;3299;42.004;24.868;2023-04-28T09:14:40;3.58;;;2.10;;
6531;SDS011;3299;42.004;24.868;2023-04-28T09:17:09;4.50;;;2.20;;
6531;SDS011;3299;42.004;24.868;2023-04-28T09:19:37;3.60;;;2.10;;
6531;SDS011;3299;42.004;24.868;2023-04-28T09:22:03;3.13;;;2.00;;
6531;SDS011;3299;42.004;24.868;2023-04-28T09:27:00;5.55;;;2.28;;
6531;SDS011;3299;42.004;24.868;2023-04-28T09:29:26;3.80;;;2.65;;
6531;SDS011;3299;42.004;24.868;2023-04-28T09:31:53;4.07;;;2.85;;
6531;SDS011;3299;42.004;24.868;2023-04-28T09:34:21;5.13;;;2.97;;
6531;SDS011;3299;42.004;24.868;2023-04-28T09:36:47;7.53;;;3.03;;
6531;SDS011;3299;42.004;24.868;2023-04-28T09:39:12;3.63;;;2.72;;
6531;SDS011;3299;42.004;24.868;2023-04-28T09:41:38;4.93;;;2.63;;
6531;SDS011;3299;42.004;24.868;2023-04-28T09:44:11;4.88;;;2.60;;
6531;SDS011;3299;42.004;24.868;2023-04-28T09:46:38;5.70;;;2.95;;
6531;SDS011;3299;42.004;24.868;2023-04-28T09:49:04;5.78;;;3.30;;
6531;SDS011;3299;42.004;24.868;2023-04-28T09:51:29;7.15;;;3.47;;
6531;SDS011;3299;42.004;24.868;2023-04-28T09:53:55;5.13;;;2.78;;
6531;SDS011;3299;42.004;24.868;2023-04-28T09:56:25;4.63;;;2.70;;
6531;SDS011;3299;42.004;24.868;2023-04-28T09:58:52;4.13;;;3.25;;
6531;SDS011;3299;42.004;24.868;2023-04-28T10:01:18;5.80;;;3.28;;
6531;SDS011;3299;42.004;24.868;2023-04-28T10:03:44;4.47;;;2.80;;
6531;SDS011;3299;42.004;24.868;2023-04-28T10:06:10;5.68;;;3.50;;
6531;SDS011;3299;42.004;24.868;2023-04-28T10:08:35;5.78;;;3.58;;
6531;SDS011;3299;42.004;24.868;2023-04-28T10:11:01;4.90;;;3.65;;
6531;SDS011;3299;42.004;24.868;2023-04-28T10:13:27;4.15;;;2.83;;
6531;SDS011;3299;42.004;24.868;2023-04-28T10:15:53;7.57;;;3.38;;
6531;SDS011;3299;42.004;24.868;2023-04-28T10:18:19;6.10;;;2.67;;
6531;SDS011;3299;42.004;24.868;2023-04-28T10:20:47;5.15;;;2.90;;
6531;SDS011;3299;42.004;24.868;2023-04-28T10:26:10;5.72;;;3.05;;
6531;SDS011;3299;42.004;24.868;2023-04-28T10:28:47;6.07;;;3.72;;
6531;SDS011;3299;42.004;24.868;2023-04-28T10:31:15;6.45;;;3.33;;
6531;SDS011;3299;42.004;24.868;2023-04-28T10:33:45;6.00;;;3.40;;
6531;SDS011;3299;42.004;24.868;2023-04-28T10:36:44;5.68;;;3.38;;
6531;SDS011;3299;42.004;24.868;2023-04-28T10:39:14;2.97;;;2.78;;
6531;SDS011;3299;42.004;24.868;2023-04-28T10:41:40;4.97;;;3.28;;
6531;SDS011;3299;42.004;24.868;2023-04-28T10:47:00;4.43;;;2.85;;
6531;SDS011;3299;42.004;24.868;2023-04-28T11:00:41;3.72;;;2.92;;
6531;SDS011;3299;42.004;24.868;2023-04-28T11:03:07;3.75;;;3.20;;
6531;SDS011;3299;42.004;24.868;2023-04-28T11:05:33;4.20;;;2.88;;
6531;SDS011;3299;42.004;24.868;2023-04-28T11:13:41;5.32;;;2.90;;
6531;SDS011;3299;42.004;24.868;2023-04-28T11:16:07;4.88;;;2.95;;
6531;SDS011;3299;42.004;24.868;2023-04-28T11:18:56;3.15;;;2.55;;
6531;SDS011;3299;42.004;24.868;2023-04-28T11:21:23;3.00;;;2.30;;
6531;SDS011;3299;42.004;24.868;2023-04-28T11:23:50;2.85;;;2.50;;
6531;SDS011;3299;42.004;24.868;2023-04-28T11:26:17;2.72;;;2.15;;
6531;SDS011;3299;42.004;24.868;2023-04-28T11:28:50;7.50;;;3.35;;
6531;SDS011;3299;42.004;24.868;2023-04-28T11:31:18;4.63;;;2.78;;
6531;SDS011;3299;42.004;24.868;2023-04-28T11:33:48;6.93;;;2.58;;
6531;SDS011;3299;42.004;24.868;2023-04-28T11:38:52;5.10;;;2.60;;
6531;SDS011;3299;42.004;24.868;2023-04-28T11:41:18;2.63;;;2.30;;
6531;SDS011;3299;42.004;24.868;2023-04-28T11:43:43;3.40;;;2.47;;
6531;SDS011;3299;42.004;24.868;2023-04-28T11:46:09;8.27;;;2.47;;
6531;SDS011;3299;42.004;24.868;2023-04-28T11:48:34;3.55;;;2.70;;
6531;SDS011;3299;42.004;24.868;2023-04-28T11:51:00;4.18;;;2.65;;
6531;SDS011;3299;42.004;24.868;2023-04-28T11:53:44;3.88;;;2.72;;
6531;SDS011;3299;42.004;24.868;2023-04-28T11:56:09;3.95;;;2.85;;
6531;SDS011;3299;42.004;24.868;2023-04-28T11:58:37;3.72;;;2.78;;
6531;SDS011;3299;42.004;24.868;2023-04-28T12:01:09;3.75;;;2.92;;
6531;SDS011;3299;42.004;24.868;2023-04-28T12:03:44;4.07;;;2.63;;
6531;SDS011;3299;42.004;24.868;2023-04-28T12:06:11;5.82;;;2.40;;
6531;SDS011;3299;42.004;24.868;2023-04-28T12:08:36;3.05;;;2.75;;
6531;SDS011;3299;42.004;24.868;2023-04-28T12:13:37;5.93;;;2.92;;
6531;SDS011;3299;42.004;24.868;2023-04-28T12:16:04;2.50;;;2.30;;
6531;SDS011;3299;42.004;24.868;2023-04-28T12:18:33;6.55;;;2.60;;
6531;SDS011;3299;42.004;24.868;2023-04-28T12:21:02;3.17;;;2.70;;
6531;SDS011;3299;42.004;24.868;2023-04-28T12:25:57;5.28;;;2.65;;
6531;SDS011;3299;42.004;24.868;2023-04-28T12:28:23;5.47;;;2.67;;
6531;SDS011;3299;42.004;24.868;2023-04-28T12:31:04;5.25;;;2.50;;
6531;SDS011;3299;42.004;24.868;2023-04-28T12:33:32;6.35;;;2.75;;
6531;SDS011;3299;42.004;24.868;2023-04-28T12:36:03;3.63;;;2.40;;
6531;SDS011;3299;42.004;24.868;2023-04-28T12:38:32;4.05;;;2.80;;
6531;SDS011;3299;42.004;24.868;2023-04-28T12:40:58;7.38;;;2.50;;
6531;SDS011;3299;42.004;24.868;2023-04-28T12:43:23;6.68;;;2.25;;
6531;SDS011;3299;42.004;24.868;2023-04-28T12:45:50;2.58;;;2.22;;
6531;SDS011;3299;42.004;24.868;2023-04-28T12:48:17;4.70;;;2.35;;
6531;SDS011;3299;42.004;24.868;2023-04-28T12:50:42;4.25;;;2.75;;
6531;SDS011;3299;42.004;24.868;2023-04-28T12:53:08;2.03;;;1.83;;
6531;SDS011;3299;42.004;24.868;2023-04-28T12:55:33;3.80;;;2.30;;
6531;SDS011;3299;42.004;24.868;2023-04-28T12:57:58;4.05;;;2.17;;
6531;SDS011;3299;42.004;24.868;2023-04-28T13:00:24;2.97;;;2.35;;
6531;SDS011;3299;42.004;24.868;2023-04-28T13:02:50;3.88;;;2.20;;
6531;SDS011;3299;42.004;24.868;2023-04-28T13:05:16;3.67;;;2.30;;
6531;SDS011;3299;42.004;24.868;2023-04-28T13:07:43;4.30;;;2.20;;
6531;SDS011;3299;42.004;24.868;2023-04-28T13:10:09;3.65;;;2.13;;
6531;SDS011;3299;42.004;24.868;2023-04-28T13:12:34;7.80;;;2.53;;
6531;SDS011;3299;42.004;24.868;2023-04-28T13:15:00;7.38;;;2.70;;
6531;SDS011;3299;42.004;24.868;2023-04-28T13:17:26;4.20;;;2.50;;
6531;SDS011;3299;42.004;24.868;2023-04-28T13:19:52;4.57;;;2.00;;
6531;SDS011;3299;42.004;24.868;2023-04-28T13:22:18;3.00;;;2.30;;
6531;SDS011;3299;42.004;24.868;2023-04-28T13:24:44;2.38;;;2.03;;
6531;SDS011;3299;42.004;24.868;2023-04-28T13:27:09;5.20;;;2.28;;
6531;SDS011;3299;42.004;24.868;2023-04-28T13:29:35;4.65;;;2.25;;
6531;SDS011;3299;42.004;24.868;2023-04-28T13:32:01;3.53;;;2.13;;
6531;SDS011;3299;42.004;24.868;2023-04-28T13:34:26;5.13;;;2.40;;
6531;SDS011;3299;42.004;24.868;2023-04-28T13:36:52;3.47;;;2.20;;
6531;SDS011;3299;42.004;24.868;2023-04-28T13:39:19;2.45;;;2.22;;
6531;SDS011;3299;42.004;24.868;2023-04-28T13:41:46;2.92;;;2.30;;
6531;SDS011;3299;42.004;24.868;2023-04-28T13:44:12;3.58;;;1.70;;
6531;SDS011;3299;42.004;24.868;2023-04-28T13:46:38;2.55;;;2.05;;
6531;SDS011;3299;42.004;24.868;2023-04-28T13:49:03;3.50;;;1.60;;
6531;SDS011;3299;42.004;24.868;2023-04-28T13:51:29;6.75;;;1.83;;
6531;SDS011;3299;42.004;24.868;2023-04-28T13:53:57;3.70;;;1.95;;
6531;SDS011;3299;42.004;24.868;2023-04-28T13:56:22;1.98;;;1.77;;
6531;SDS011;3299;42.004;24.868;2023-04-28T13:58:48;2.03;;;1.92;;
6531;SDS011;3299;42.004;24.868;2023-04-28T14:01:13;3.90;;;1.98;;
6531;SDS011;3299;42.004;24.868;2023-04-28T14:03:40;4.40;;;1.95;;
6531;SDS011;3299;42.004;24.868;2023-04-28T14:06:07;4.28;;;1.85;;
6531;SDS011;3299;42.004;24.868;2023-04-28T14:08:32;2.35;;;2.05;;
6531;SDS011;3299;42.004;24.868;2023-04-28T14:10:58;3.63;;;2.42;;
6531;SDS011;3299;42.004;24.868;2023-04-28T14:13:23;4.18;;;2.15;;
6531;SDS011;3299;42.004;24.868;2023-04-28T14:15:52;2.70;;;2.53;;
6531;SDS011;3299;42.004;24.868;2023-04-28T14:18:21;1.90;;;1.73;;
6531;SDS011;3299;42.004;24.868;2023-04-28T14:20:47;3.92;;;2.00;;
6531;SDS011;3299;42.004;24.868;2023-04-28T14:23:13;2.03;;;1.80;;
6531;SDS011;3299;42.004;24.868;2023-04-28T14:25:39;2.92;;;2.15;;
6531;SDS011;3299;42.004;24.868;2023-04-28T14:28:05;3.13;;;2.10;;
6531;SDS011;3299;42.004;24.868;2023-04-28T14:30:30;3.63;;;2.22;;
6531;SDS011;3299;42.004;24.868;2023-04-28T14:32:56;4.40;;;2.28;;
6531;SDS011;3299;42.004;24.868;2023-04-28T14:35:21;4.53;;;2.17;;
6531;SDS011;3299;42.004;24.868;2023-04-28T14:37:47;4.20;;;2.28;;
6531;SDS011;3299;42.004;24.868;2023-04-28T14:40:12;1.90;;;1.80;;
6531;SDS011;3299;42.004;24.868;2023-04-28T14:42:39;3.20;;;1.80;;
6531;SDS011;3299;42.004;24.868;2023-04-28T14:45:05;2.63;;;2.17;;
6531;SDS011;3299;42.004;24.868;2023-04-28T14:47:33;2.20;;;1.83;;
6531;SDS011;3299;42.004;24.868;2023-04-28T14:49:59;3.33;;;2.15;;
6531;SDS011;3299;42.004;24.868;2023-04-28T14:52:25;3.20;;;2.17;;
6531;SDS011;3299;42.004;24.868;2023-04-28T14:54:53;2.58;;;1.80;;
6531;SDS011;3299;42.004;24.868;2023-04-28T14:57:19;6.50;;;2.33;;
6531;SDS011;3299;42.004;24.868;2023-04-28T14:59:45;3.97;;;2.33;;
6531;SDS011;3299;42.004;24.868;2023-04-28T15:02:10;3.33;;;2.13;;
6531;SDS011;3299;42.004;24.868;2023-04-28T15:04:39;3.97;;;1.90;;
6531;SDS011;3299;42.004;24.868;2023-04-28T15:07:05;5.10;;;2.70;;
6531;SDS011;3299;42.004;24.868;2023-04-28T15:09:32;2.72;;;2.13;;
6531;SDS011;3299;42.004;24.868;2023-04-28T15:11:58;2.60;;;1.95;;
6531;SDS011;3299;42.004;24.868;2023-04-28T15:14:23;3.58;;;2.00;;
6531;SDS011;3299;42.004;24.868;2023-04-28T15:16:49;3.80;;;2.30;;
6531;SDS011;3299;42.004;24.868;2023-04-28T15:19:14;3.83;;;2.10;;
6531;SDS011;3299;42.004;24.868;2023-04-28T15:21:39;2.40;;;2.05;;
6531;SDS011;3299;42.004;24.868;2023-04-28T15:24:05;3.40;;;2.08;;
6531;SDS011;3299;42.004;24.868;2023-04-28T15:26:31;4.22;;;2.03;;
6531;SDS011;3299;42.004;24.868;2023-04-28T15:28:57;3.30;;;2.15;;